createdAt,value
2018-03-19T00:02:06.087Z,43.82
2018-03-19T00:08:10.645Z,44.01
2018-03-19T00:14:15.197Z,43.79
2018-03-19T00:20:19.906Z,44.46
2018-03-19T00:26:24.601Z,44.52
2018-03-19T00:32:29.112Z,44.96
2018-03-19T00:38:34.489Z,45.08
2018-03-19T00:44:39.205Z,45.14
2018-03-19T00:50:43.917Z,44.17
2018-03-19T00:56:48.609Z,44.78
2018-03-19T01:02:53.183Z,45.26
2018-03-19T01:08:57.745Z,44.84
2018-03-19T01:15:02.318Z,44.10
2018-03-19T01:21:06.846Z,44.33
2018-03-19T01:27:12.905Z,45.79
2018-03-19T01:33:17.433Z,47.12
2018-03-19T01:39:22.145Z,46.24
2018-03-19T01:45:27.607Z,46.97
2018-03-19T01:51:32.157Z,47.69
2018-03-19T01:57:36.822Z,46.37
2018-03-19T02:03:42.139Z,47.38
2018-03-19T02:09:47.014Z,45.84
2018-03-19T02:15:51.727Z,45.98
2018-03-19T02:21:56.311Z,45.90
2018-03-19T02:28:00.856Z,46.14
2018-03-19T02:34:05.352Z,46.19
2018-03-19T02:40:09.904Z,45.91
2018-03-19T02:46:14.441Z,47.78
2018-03-19T02:52:20.655Z,47.42
2018-03-19T02:58:25.242Z,47.89
2018-03-19T03:04:30.590Z,49.03
2018-03-19T03:10:35.203Z,48.85
2018-03-19T03:16:40.581Z,48.62
2018-03-19T03:22:45.147Z,47.46
2018-03-19T03:28:50.230Z,48.46
2018-03-19T03:34:54.771Z,47.88
2018-03-19T03:40:59.292Z,47.96
2018-03-19T03:47:03.896Z,49.07
2018-03-19T03:53:08.408Z,50.56
2018-03-19T03:59:13.731Z,50.93
2018-03-19T04:05:18.990Z,52.41
2018-03-19T04:11:24.380Z,54.18
2018-03-19T04:17:28.910Z,54.75
2018-03-19T04:23:34.210Z,54.61
2018-03-19T04:29:38.768Z,55.66
2018-03-19T04:35:43.571Z,57.01
2018-03-19T04:41:48.640Z,58.09
2018-03-19T04:47:54.245Z,57.10
2018-03-19T04:53:58.843Z,57.85
2018-03-19T05:00:03.493Z,58.72
2018-03-19T05:06:08.838Z,59.89
2018-03-19T05:12:13.431Z,60.19
2018-03-19T05:18:18.626Z,59.78
2018-03-19T05:24:23.172Z,59.72
2018-03-19T05:30:28.655Z,59.09
2018-03-19T05:36:33.222Z,59.42
2018-03-19T05:42:37.893Z,58.59
2018-03-19T05:48:42.445Z,60.87
2018-03-19T05:54:47.584Z,60.29
2018-03-19T06:00:52.401Z,57.50
2018-03-19T06:06:57.028Z,56.82
2018-03-19T06:13:01.682Z,55.31
2018-03-19T06:19:07.244Z,54.41
2018-03-19T06:25:12.541Z,53.66
2018-03-19T06:31:17.872Z,53.31
2018-03-19T06:37:22.464Z,52.95
2018-03-19T06:43:27.135Z,52.75
2018-03-19T06:49:32.048Z,52.10
2018-03-19T06:55:36.680Z,51.80
2018-03-19T07:01:41.380Z,51.64
2018-03-19T07:07:45.988Z,51.19
2018-03-19T07:13:50.857Z,40.19
2018-03-19T07:19:55.384Z,30.58
2018-03-19T07:26:00.879Z,25.47
2018-03-19T07:32:05.472Z,23.21
2018-03-19T07:38:10.760Z,22.17
2018-03-19T07:44:15.546Z,27.35
2018-03-19T07:50:21.247Z,31.45
2018-03-19T07:56:25.755Z,32.85
2018-03-19T08:02:31.001Z,33.72
2018-03-19T08:08:35.666Z,34.55
2018-03-19T08:14:40.397Z,34.06
2018-03-19T08:20:45.032Z,33.91
2018-03-19T08:39:50.238Z,28.98
2018-03-19T08:45:55.228Z,27.01
2018-03-19T08:51:59.770Z,24.42
2018-03-19T08:58:04.410Z,22.15
2018-03-19T09:04:09.677Z,21.69
2018-03-19T09:10:15.019Z,20.50
2018-03-19T09:16:19.559Z,19.83
2018-03-19T09:22:24.832Z,19.57
2018-03-19T09:28:29.449Z,22.07
2018-03-19T09:34:34.118Z,20.69
2018-03-19T09:40:39.218Z,17.94
2018-03-19T09:46:43.749Z,18.26
2018-03-19T09:52:48.463Z,18.87
2018-03-19T09:58:53.056Z,18.52
2018-03-19T10:04:57.712Z,19.83
2018-03-19T10:11:02.351Z,20.60
2018-03-19T10:17:06.960Z,20.19
2018-03-19T10:23:11.627Z,17.58
2018-03-19T10:29:16.305Z,17.21
2018-03-19T10:35:21.633Z,17.26
2018-03-19T10:41:26.351Z,20.38
2018-03-19T10:47:30.856Z,18.73
2018-03-19T10:53:35.414Z,18.90
2018-03-19T10:59:39.941Z,20.68
2018-03-19T11:05:50.524Z,23.86
2018-03-19T11:11:55.170Z,21.30
2018-03-19T11:17:59.773Z,20.05
2018-03-19T11:24:04.267Z,21.02
2018-03-19T11:30:08.888Z,20.78
2018-03-19T11:36:13.657Z,21.03
2018-03-19T11:42:18.770Z,18.70
2018-03-19T11:48:23.495Z,21.24
2018-03-19T11:54:28.232Z,21.46
2018-03-19T12:00:33.529Z,21.86
2018-03-19T12:06:38.883Z,20.86
2018-03-19T12:12:44.321Z,18.52
2018-03-19T12:18:48.849Z,19.32
2018-03-19T12:24:53.468Z,21.97
2018-03-19T12:30:58.059Z,22.23
2018-03-19T12:37:02.717Z,23.04
2018-03-19T12:43:07.462Z,24.81
2018-03-19T12:49:12.024Z,25.18
2018-03-19T12:55:17.427Z,24.92
2018-03-19T13:01:22.842Z,23.42
2018-03-19T13:07:27.664Z,23.70
2018-03-19T13:13:32.155Z,22.96
2018-03-19T13:19:36.761Z,26.77
2018-03-19T13:25:42.167Z,23.99
2018-03-19T13:31:48.495Z,21.68
2018-03-19T13:37:53.016Z,23.25
2018-03-19T13:43:57.534Z,22.72
2018-03-19T13:50:02.258Z,23.38
2018-03-19T13:56:06.764Z,22.24
2018-03-19T14:02:11.319Z,21.83
2018-03-19T14:08:16.535Z,20.53
2018-03-19T14:14:21.614Z,21.01
2018-03-19T14:20:26.125Z,20.06
2018-03-19T14:26:30.652Z,19.66
2018-03-19T14:32:35.136Z,18.61
2018-03-19T14:38:40.359Z,20.35
2018-03-19T14:44:44.901Z,20.16
2018-03-19T14:50:49.984Z,20.71
2018-03-19T14:56:54.529Z,19.35
2018-03-19T15:02:59.367Z,19.52
2018-03-19T15:09:03.929Z,19.48
2018-03-19T15:15:08.423Z,18.45
2018-03-19T15:21:12.915Z,17.18
2018-03-19T15:27:17.578Z,19.56
2018-03-19T15:33:22.144Z,20.83
2018-03-19T15:39:26.753Z,19.74
2018-03-19T15:45:31.257Z,18.76
2018-03-19T15:51:35.875Z,19.32
2018-03-19T15:57:40.354Z,20.78
2018-03-19T16:03:45.004Z,21.00
2018-03-19T16:09:51.105Z,20.08
2018-03-19T16:15:55.635Z,19.75
2018-03-19T16:22:00.173Z,19.80
2018-03-19T16:28:05.755Z,21.66
2018-03-19T16:34:10.263Z,22.81
2018-03-19T16:40:15.684Z,23.31
2018-03-19T16:46:21.047Z,24.30
2018-03-19T16:52:26.397Z,24.15
2018-03-19T16:58:31.256Z,24.69
2018-03-19T17:04:35.814Z,25.68
2018-03-19T17:10:40.340Z,26.06
2018-03-19T17:16:45.709Z,27.87
2018-03-19T17:22:51.300Z,31.65
2018-03-19T17:28:55.999Z,33.64
2018-03-19T17:35:01.255Z,35.42
2018-03-19T17:41:05.741Z,36.58
2018-03-19T17:47:10.279Z,37.70
2018-03-19T17:53:14.788Z,39.81
2018-03-19T17:59:21.389Z,41.99
2018-03-19T18:05:26.042Z,43.64
2018-03-19T18:11:30.595Z,44.37
2018-03-19T18:17:35.545Z,46.42
2018-03-19T18:23:40.068Z,48.85
2018-03-19T18:29:44.749Z,50.66
2018-03-19T18:35:50.244Z,52.30
2018-03-19T18:41:55.659Z,52.36
2018-03-19T18:48:00.380Z,53.18
2018-03-19T18:54:04.978Z,53.08
2018-03-19T19:00:09.485Z,53.35
2018-03-19T19:06:15.072Z,52.77
2018-03-19T19:25:19.675Z,48.73
2018-03-19T19:31:24.286Z,48.50
2018-03-19T19:37:30.465Z,52.21
2018-03-19T19:43:35.044Z,53.62
2018-03-19T19:49:40.405Z,53.39
2018-03-19T19:55:45.111Z,53.36
2018-03-19T20:01:50.280Z,54.67
2018-03-19T20:07:54.881Z,55.93
2018-03-19T20:13:59.537Z,55.79
2018-03-19T20:20:04.793Z,56.73
2018-03-19T20:26:09.290Z,56.34
2018-03-19T20:32:13.988Z,57.69
2018-03-19T20:38:20.117Z,58.14
2018-03-19T20:44:24.970Z,57.86
2018-03-19T20:50:29.594Z,57.54
2018-03-19T20:56:34.883Z,58.06
2018-03-19T21:02:40.218Z,57.97
2018-03-19T21:08:44.745Z,56.44
2018-03-19T21:14:49.800Z,57.86
2018-03-19T21:20:54.538Z,58.16
2018-03-19T21:26:59.855Z,58.60
2018-03-19T21:33:04.360Z,58.08
2018-03-19T21:39:09.102Z,58.65
2018-03-19T21:45:14.413Z,58.95
2018-03-19T21:51:19.499Z,59.39
2018-03-19T21:57:25.090Z,60.04
2018-03-19T22:03:29.583Z,59.01
2018-03-19T22:09:34.100Z,59.06
2018-03-19T22:15:38.903Z,59.70
2018-03-19T22:21:43.395Z,60.88
2018-03-19T22:27:49.340Z,60.71
2018-03-19T22:33:54.742Z,60.20
2018-03-19T22:40:00.248Z,60.41
2018-03-19T22:46:04.961Z,59.80
2018-03-19T22:52:09.559Z,60.09
2018-03-19T22:58:14.205Z,60.72
2018-03-19T23:04:36.875Z,61.21
2018-03-19T23:10:41.359Z,61.58
2018-03-19T23:16:46.399Z,61.43
2018-03-19T23:22:52.119Z,61.41
2018-03-19T23:28:57.439Z,61.91
2018-03-19T23:35:01.961Z,62.24
2018-03-19T23:41:06.606Z,62.72
2018-03-19T23:47:11.156Z,63.01
2018-03-19T23:53:17.069Z,63.13
2018-03-19T23:59:21.703Z,62.99
